Terminal Aerodrome Forecast
Issued by NWS Blacksburg, VA

Home | Current Version | Previous Version | Text Only | Print | Product List | Glossary On
Versions: 1 2 3 4 5 6 7 8 9 10 11 12 13 14 15 16 17 18 19 20 21 22 23 24 25 26 27 28 29 30 31
000
FTUS41 KRNK 250316 AAB
TAFROA
TAF AMD
KROA 250316Z 2503/2524 05004KT 6SM BR BKN010 OVC070
     FM250400 04004KT 5SM -DZ BR OVC010
     FM251400 05006KT P6SM BKN040=

USA.gov is the U.S. government's official web portal to all federal, state and local government web resources and services.